createdAt,value
2019-03-23T00:00:41.977Z,7.55
2019-03-23T00:03:10.725Z,9.95
2019-03-23T00:05:39.855Z,7.58
2019-03-23T00:08:08.541Z,7.05
2019-03-23T00:10:37.278Z,6.33
2019-03-23T00:13:05.978Z,7.15
2019-03-23T00:15:34.902Z,7.20
2019-03-23T00:18:03.763Z,7.40
2019-03-23T00:20:32.364Z,8.85
2019-03-23T00:23:01.054Z,9.20
2019-03-23T00:25:33.314Z,8.83
2019-03-23T00:28:02.245Z,8.50
2019-03-23T00:30:30.944Z,7.55
2019-03-23T00:32:59.920Z,8.03
2019-03-23T00:35:28.931Z,9.18
2019-03-23T00:37:57.629Z,8.83
2019-03-23T00:40:26.341Z,10.35
2019-03-23T00:42:55.168Z,6.72
2019-03-23T00:45:23.770Z,8.20
2019-03-23T00:47:52.491Z,7.95
2019-03-23T00:50:21.111Z,9.73
2019-03-23T00:52:50.148Z,7.28
2019-03-23T00:55:18.895Z,10.82
2019-03-23T00:57:47.502Z,14.63
2019-03-23T01:00:16.330Z,10.93
2019-03-23T01:02:45.302Z,11.33
2019-03-23T01:05:14.248Z,10.23
2019-03-23T01:07:42.988Z,13.32
2019-03-23T01:10:12.195Z,10.05
2019-03-23T01:12:40.941Z,10.93
2019-03-23T01:15:11.673Z,12.15
2019-03-23T01:17:40.465Z,14.95
2019-03-23T01:20:09.672Z,12.60
2019-03-23T01:22:38.751Z,11.40
2019-03-23T01:25:07.638Z,14.60
2019-03-23T01:27:36.369Z,13.20
2019-03-23T01:30:06.695Z,13.70
2019-03-23T01:32:35.440Z,12.13
2019-03-23T01:35:05.494Z,19.57
2019-03-23T01:37:34.476Z,14.90
2019-03-23T01:40:03.885Z,13.85
2019-03-23T01:42:32.966Z,18.82
2019-03-23T01:45:01.894Z,20.60
2019-03-23T01:47:30.906Z,35.48
2019-03-23T01:49:59.866Z,35.68
2019-03-23T01:52:29.193Z,38.75
2019-03-23T01:54:58.786Z,45.58
2019-03-23T01:57:27.579Z,45.08
2019-03-23T01:59:56.706Z,47.50
2019-03-23T02:02:25.893Z,55.45
2019-03-23T02:04:54.626Z,68.50
2019-03-23T02:07:23.384Z,66.45
2019-03-23T02:09:52.479Z,71.92
2019-03-23T02:12:21.197Z,68.92
2019-03-23T02:14:49.911Z,62.48
2019-03-23T02:17:18.902Z,72.47
2019-03-23T02:19:47.652Z,66.85
2019-03-23T02:22:16.478Z,71.15
2019-03-23T02:24:45.199Z,72.45
2019-03-23T02:27:13.808Z,71.02
2019-03-23T02:29:42.526Z,76.30
2019-03-23T02:32:11.423Z,65.80
2019-03-23T02:34:40.506Z,69.58
2019-03-23T02:37:09.835Z,66.02
2019-03-23T02:39:39.385Z,64.10
2019-03-23T02:42:08.315Z,63.90
2019-03-23T02:44:37.276Z,65.50
2019-03-23T02:47:06.332Z,69.72
2019-03-23T02:49:35.495Z,67.65
2019-03-23T02:52:04.571Z,65.03
2019-03-23T02:54:34.443Z,72.32
2019-03-23T02:57:03.741Z,72.82
2019-03-23T02:59:32.110Z,75.47
2019-03-23T03:02:01.394Z,76.05
2019-03-23T03:04:30.471Z,72.82
2019-03-23T03:06:59.504Z,75.50
2019-03-23T03:09:28.831Z,78.15
2019-03-23T03:11:57.570Z,88.52
2019-03-23T03:14:26.483Z,77.03
2019-03-23T03:16:55.845Z,85.45
2019-03-23T03:19:24.568Z,77.20
2019-03-23T03:21:53.627Z,89.40
2019-03-23T03:24:22.689Z,95.40
2019-03-23T03:26:51.913Z,98.90
2019-03-23T03:29:21.140Z,99.90
2019-03-23T03:31:50.063Z,98.95
2019-03-23T03:34:19.278Z,90.95
2019-03-23T03:36:48.271Z,104.53
2019-03-23T03:39:16.878Z,92.97
2019-03-23T03:41:45.582Z,99.28
2019-03-23T03:44:14.312Z,98.85
2019-03-23T03:46:43.020Z,109.00
2019-03-23T03:49:13.032Z,107.85
2019-03-23T03:51:41.919Z,95.45
2019-03-23T03:54:10.691Z,114.55
2019-03-23T03:56:39.558Z,107.37
2019-03-23T03:59:08.393Z,108.97
2019-03-23T04:01:37.569Z,103.53
2019-03-23T04:04:06.818Z,107.43
2019-03-23T04:06:35.603Z,108.27
2019-03-23T04:09:06.349Z,118.65
2019-03-23T04:11:35.470Z,138.20
2019-03-23T04:14:04.571Z,123.72
2019-03-23T04:16:33.601Z,125.30
2019-03-23T04:19:02.360Z,138.07
2019-03-23T04:21:31.146Z,123.18
2019-03-23T04:23:59.847Z,132.20
2019-03-23T04:26:28.662Z,143.47
2019-03-23T04:28:57.775Z,150.27
2019-03-23T04:31:26.558Z,142.93
2019-03-23T04:33:55.251Z,152.22
2019-03-23T04:36:23.950Z,145.22
2019-03-23T04:38:52.762Z,152.12
2019-03-23T04:41:21.580Z,155.57
2019-03-23T04:43:50.303Z,154.57
2019-03-23T04:46:19.014Z,164.43
2019-03-23T04:48:47.810Z,154.68
2019-03-23T04:51:17.097Z,158.42
2019-03-23T04:53:46.138Z,161.07
2019-03-23T04:56:15.173Z,145.53
2019-03-23T04:58:44.114Z,162.97
2019-03-23T05:01:13.075Z,170.22
2019-03-23T05:03:42.540Z,156.10
2019-03-23T05:06:11.591Z,149.68
2019-03-23T05:08:40.219Z,167.82
2019-03-23T05:11:08.910Z,150.15
2019-03-23T05:13:37.686Z,153.23
2019-03-23T05:16:06.732Z,151.15
2019-03-23T05:18:35.831Z,159.75
2019-03-23T05:21:04.544Z,168.82
2019-03-23T05:23:33.656Z,149.75
2019-03-23T05:26:02.734Z,155.82
2019-03-23T05:28:31.994Z,171.35
2019-03-23T05:31:01.099Z,164.05
2019-03-23T05:33:30.162Z,164.05
2019-03-23T05:35:58.888Z,162.62
2019-03-23T05:38:28.095Z,156.37
2019-03-23T05:40:57.297Z,175.75
2019-03-23T05:43:26.258Z,176.57
2019-03-23T05:45:55.190Z,168.30
2019-03-23T05:48:24.174Z,177.55
2019-03-23T05:50:53.414Z,190.45
2019-03-23T05:53:22.269Z,169.20
2019-03-23T05:55:51.225Z,159.20
2019-03-23T05:58:20.128Z,152.50
2019-03-23T06:00:49.057Z,153.38
2019-03-23T06:03:18.141Z,157.65
2019-03-23T06:05:47.009Z,169.20
2019-03-23T06:08:15.746Z,153.15
2019-03-23T06:10:44.477Z,144.43
2019-03-23T06:13:13.245Z,145.17
2019-03-23T06:15:41.829Z,138.92
2019-03-23T06:18:10.662Z,133.15
2019-03-23T06:20:39.442Z,124.40
2019-03-23T06:23:08.160Z,136.82
2019-03-23T06:25:37.046Z,133.60
2019-03-23T06:28:05.720Z,135.45
2019-03-23T06:30:34.508Z,139.80
2019-03-23T06:33:03.258Z,148.00
2019-03-23T06:35:32.137Z,127.25
2019-03-23T06:38:01.246Z,136.95
2019-03-23T06:40:30.088Z,136.25
2019-03-23T06:42:59.813Z,148.30
2019-03-23T06:45:29.154Z,126.20
2019-03-23T06:47:57.945Z,140.05
2019-03-23T06:50:27.950Z,120.65
2019-03-23T06:52:55.622Z,141.25
2019-03-23T06:55:24.330Z,137.88
2019-03-23T06:57:53.030Z,114.92
2019-03-23T07:00:21.727Z,119.72
2019-03-23T07:02:50.504Z,135.10
2019-03-23T07:05:19.207Z,129.93
2019-03-23T07:07:47.790Z,132.52
2019-03-23T07:10:16.485Z,128.75
2019-03-23T07:12:45.566Z,127.10
2019-03-23T07:15:19.798Z,121.15
2019-03-23T07:17:44.990Z,119.70
2019-03-23T07:20:14.845Z,132.87
2019-03-23T07:22:43.663Z,135.00
2019-03-23T07:25:18.240Z,137.90
2019-03-23T07:27:45.931Z,124.05
2019-03-23T07:30:17.332Z,123.33
2019-03-23T07:32:45.415Z,128.00
2019-03-23T07:35:13.454Z,137.90
2019-03-23T07:37:41.266Z,128.32
2019-03-23T07:40:09.533Z,119.60
2019-03-23T07:42:46.941Z,139.03
2019-03-23T07:45:16.687Z,130.10
2019-03-23T07:47:44.274Z,124.33
2019-03-23T07:50:12.182Z,122.05
2019-03-23T07:52:40.007Z,123.45
2019-03-23T07:55:12.137Z,124.20
2019-03-23T07:57:40.304Z,115.35
2019-03-23T08:00:10.826Z,126.53
2019-03-23T08:02:38.749Z,113.88
2019-03-23T08:05:07.711Z,113.22
2019-03-23T08:07:36.378Z,109.07
2019-03-23T08:10:16.883Z,107.20
2019-03-23T08:12:44.718Z,105.95
2019-03-23T08:15:13.086Z,111.25
2019-03-23T08:17:41.658Z,113.92
2019-03-23T08:20:09.695Z,96.10
2019-03-23T08:22:37.460Z,107.70
2019-03-23T08:25:05.918Z,101.22
2019-03-23T08:27:33.963Z,103.78
2019-03-23T08:30:02.044Z,99.77
2019-03-23T08:32:30.346Z,107.52
2019-03-23T08:34:58.311Z,102.95
2019-03-23T08:37:26.151Z,100.35
2019-03-23T08:39:54.494Z,101.95
2019-03-23T08:42:22.339Z,102.70
2019-03-23T08:44:51.237Z,107.17
2019-03-23T08:47:20.306Z,101.50
2019-03-23T08:49:48.186Z,108.85
2019-03-23T08:52:17.243Z,104.47
2019-03-23T08:54:46.097Z,103.07
2019-03-23T08:57:16.330Z,100.53
2019-03-23T08:59:44.047Z,98.72
2019-03-23T09:02:14.740Z,105.47
2019-03-23T09:04:43.072Z,101.20
2019-03-23T09:07:11.167Z,107.10
2019-03-23T09:09:59.500Z,104.43
2019-03-23T09:12:33.485Z,109.25
2019-03-23T09:15:01.866Z,89.03
2019-03-23T09:17:34.622Z,100.45
2019-03-23T09:20:09.812Z,101.27
2019-03-23T09:22:51.445Z,102.40
2019-03-23T09:25:18.248Z,96.02
2019-03-23T09:27:56.013Z,84.37
2019-03-23T09:30:43.422Z,93.00
2019-03-23T09:34:26.180Z,97.47
2019-03-23T09:36:55.741Z,89.67
2019-03-23T09:42:14.774Z,93.33
2019-03-23T09:44:42.981Z,89.80
2019-03-23T09:47:11.310Z,95.38
2019-03-23T09:49:39.917Z,89.50
2019-03-23T09:52:08.237Z,89.37
2019-03-23T09:54:36.242Z,81.17
2019-03-23T09:57:04.039Z,90.22
2019-03-23T09:59:32.136Z,93.42
2019-03-23T10:02:00.226Z,82.20
2019-03-23T10:04:28.299Z,97.02
2019-03-23T10:06:56.590Z,85.67
2019-03-23T10:09:24.682Z,82.02
2019-03-23T10:11:52.434Z,85.47
2019-03-23T10:14:20.663Z,90.35
2019-03-23T10:16:49.094Z,87.95
2019-03-23T10:19:17.588Z,93.03
2019-03-23T10:21:45.834Z,84.40
2019-03-23T10:24:13.981Z,85.12
2019-03-23T10:26:43.793Z,93.35
2019-03-23T10:29:11.810Z,85.47
2019-03-23T10:31:39.906Z,87.00
2019-03-23T10:34:07.555Z,85.62
2019-03-23T10:36:36.606Z,95.57
2019-03-23T10:39:15.281Z,99.97
2019-03-23T10:41:43.014Z,101.15
2019-03-23T10:44:11.197Z,97.67
2019-03-23T10:46:39.403Z,101.60
2019-03-23T10:49:07.274Z,103.47
2019-03-23T10:51:34.894Z,82.92
2019-03-23T10:54:04.056Z,83.15
2019-03-23T10:56:32.328Z,81.60
2019-03-23T10:59:00.726Z,78.72
2019-03-23T11:01:29.707Z,81.87
2019-03-23T11:03:58.943Z,85.97
2019-03-23T11:06:27.882Z,87.62
2019-03-23T11:08:56.708Z,93.95
2019-03-23T11:11:25.349Z,90.60
2019-03-23T11:13:55.458Z,87.70
2019-03-23T11:16:24.131Z,93.05
2019-03-23T11:18:52.949Z,84.50
2019-03-23T11:21:22.137Z,81.55
2019-03-23T11:23:51.477Z,83.35
2019-03-23T11:26:20.543Z,68.00
2019-03-23T11:28:49.758Z,62.33
2019-03-23T11:31:19.010Z,65.60
2019-03-23T11:33:48.071Z,68.67
2019-03-23T11:36:16.842Z,71.50
2019-03-23T11:38:45.538Z,74.60
2019-03-23T11:41:14.391Z,70.03
2019-03-23T11:43:43.657Z,67.60
2019-03-23T11:46:13.019Z,61.25
2019-03-23T11:48:41.995Z,66.40
2019-03-23T11:51:10.896Z,61.30
2019-03-23T11:53:39.857Z,64.65
2019-03-23T11:56:08.918Z,59.90
2019-03-23T11:58:37.754Z,63.63
2019-03-23T12:01:06.841Z,64.70
2019-03-23T12:03:35.945Z,62.40
2019-03-23T12:06:04.984Z,64.12
2019-03-23T12:08:33.673Z,60.50
2019-03-23T12:11:03.364Z,62.90
2019-03-23T12:13:32.390Z,58.65
2019-03-23T12:16:01.478Z,61.25
2019-03-23T12:18:31.476Z,59.67
2019-03-23T12:21:00.219Z,54.87
2019-03-23T12:23:29.169Z,55.60
2019-03-23T12:25:58.273Z,54.43
2019-03-23T12:28:27.361Z,55.43
2019-03-23T12:30:56.725Z,53.07
2019-03-23T12:33:25.333Z,52.63
2019-03-23T12:35:54.821Z,50.87
2019-03-23T12:38:23.990Z,48.50
2019-03-23T12:40:59.046Z,50.33
2019-03-23T12:43:27.394Z,51.47
2019-03-23T12:45:55.317Z,48.60
2019-03-23T12:48:24.026Z,48.83
2019-03-23T12:50:52.946Z,54.03
2019-03-23T12:53:21.933Z,50.27
2019-03-23T12:55:52.750Z,50.80
2019-03-23T12:58:22.892Z,49.50
2019-03-23T13:00:52.255Z,52.20
2019-03-23T13:03:21.347Z,45.67
2019-03-23T13:05:50.390Z,47.57
2019-03-23T13:08:19.866Z,48.50
2019-03-23T13:10:48.639Z,46.60
2019-03-23T13:13:17.929Z,48.17
2019-03-23T13:15:46.630Z,52.93
2019-03-23T13:18:15.770Z,43.77
2019-03-23T13:20:45.027Z,46.83
2019-03-23T13:23:14.081Z,51.53
2019-03-23T13:25:43.283Z,46.80
2019-03-23T13:28:12.243Z,47.57
2019-03-23T13:30:41.335Z,45.33
2019-03-23T13:33:11.514Z,42.30
2019-03-23T13:35:41.077Z,45.30
2019-03-23T13:38:10.062Z,44.07
2019-03-23T13:40:39.018Z,49.97
2019-03-23T13:43:08.419Z,48.80
2019-03-23T13:45:42.628Z,40.30
2019-03-23T13:48:08.836Z,42.07
2019-03-23T13:50:38.111Z,43.53
2019-03-23T13:53:06.814Z,42.10
2019-03-23T13:55:35.497Z,45.70
2019-03-23T13:58:13.846Z,44.60
2019-03-23T14:00:41.784Z,43.37
2019-03-23T14:03:10.744Z,43.63
2019-03-23T14:05:39.758Z,41.10
2019-03-23T14:08:08.474Z,39.77
2019-03-23T14:10:37.257Z,40.80
2019-03-23T14:13:06.129Z,42.43
2019-03-23T14:15:34.857Z,45.30
2019-03-23T14:18:03.861Z,44.43
2019-03-23T14:20:32.620Z,41.13
2019-03-23T14:23:03.011Z,38.13
2019-03-23T14:25:32.081Z,42.07
2019-03-23T14:28:00.978Z,41.87
2019-03-23T14:30:29.666Z,42.67
2019-03-23T14:32:58.430Z,45.20
2019-03-23T14:35:27.215Z,44.53
2019-03-23T14:37:55.987Z,44.13
2019-03-23T14:40:24.637Z,45.13
2019-03-23T14:42:53.378Z,46.93
2019-03-23T14:45:22.234Z,45.80
2019-03-23T14:47:51.249Z,43.93
2019-03-23T14:50:19.854Z,41.53
2019-03-23T14:52:48.694Z,48.90
2019-03-23T14:55:17.644Z,51.60
2019-03-23T14:57:46.541Z,49.03
2019-03-23T15:00:24.680Z,47.60
2019-03-23T15:02:53.481Z,47.57
2019-03-23T15:05:22.844Z,53.77
2019-03-23T15:07:51.491Z,53.33
2019-03-23T15:10:20.329Z,55.77
2019-03-23T15:12:49.074Z,59.43
2019-03-23T15:15:18.000Z,55.03
2019-03-23T15:17:48.994Z,54.30
2019-03-23T15:20:17.804Z,55.27
2019-03-23T15:22:47.201Z,52.47
2019-03-23T15:25:15.944Z,58.20
2019-03-23T15:27:44.674Z,55.40
2019-03-23T15:30:13.504Z,53.33
2019-03-23T15:32:42.702Z,52.87
2019-03-23T15:35:11.778Z,55.10
2019-03-23T15:37:40.594Z,45.67
2019-03-23T15:40:09.970Z,50.40
2019-03-23T15:42:39.126Z,54.63
2019-03-23T15:45:09.035Z,52.67
2019-03-23T15:47:37.887Z,50.50
2019-03-23T15:50:08.047Z,55.57
2019-03-23T15:52:36.783Z,51.67
2019-03-23T15:55:06.365Z,53.20
2019-03-23T15:57:35.130Z,55.33
2019-03-23T16:00:07.001Z,52.60
2019-03-23T16:02:34.994Z,49.90
2019-03-23T16:05:04.750Z,50.47
2019-03-23T16:07:34.396Z,49.33
2019-03-23T16:10:03.909Z,54.60
2019-03-23T16:12:35.318Z,52.80
2019-03-23T16:15:04.878Z,55.20
2019-03-23T16:17:33.925Z,54.50
2019-03-23T16:20:03.047Z,53.20
2019-03-23T16:22:31.741Z,57.87
2019-03-23T16:25:00.670Z,53.75
2019-03-23T16:27:29.233Z,54.67
2019-03-23T16:29:58.081Z,56.60
2019-03-23T16:32:26.785Z,51.53
2019-03-23T16:34:55.409Z,50.07
2019-03-23T16:37:24.003Z,53.90
2019-03-23T16:39:54.806Z,50.60
2019-03-23T16:42:23.598Z,55.60
2019-03-23T16:44:52.509Z,57.80
2019-03-23T16:47:21.462Z,55.37
2019-03-23T16:49:50.254Z,55.63
2019-03-23T16:52:19.440Z,51.47
2019-03-23T16:54:48.062Z,51.03
2019-03-23T16:57:16.810Z,49.73
2019-03-23T16:59:45.470Z,58.60
2019-03-23T17:02:26.202Z,55.03
2019-03-23T17:04:54.162Z,52.65
2019-03-23T17:07:21.967Z,47.03
2019-03-23T17:09:49.731Z,55.27
2019-03-23T17:12:17.966Z,54.35
2019-03-23T17:14:45.684Z,50.92
2019-03-23T17:17:13.502Z,48.43
2019-03-23T17:19:41.457Z,53.45
2019-03-23T17:22:09.439Z,55.87
2019-03-23T17:24:37.654Z,56.00
2019-03-23T17:27:05.515Z,55.00
2019-03-23T17:29:34.802Z,51.73
2019-03-23T17:32:03.956Z,53.10
2019-03-23T17:34:32.262Z,50.85
2019-03-23T17:37:01.333Z,52.67
2019-03-23T17:39:30.560Z,54.50
2019-03-23T17:41:59.810Z,53.78
2019-03-23T17:44:28.792Z,51.75
2019-03-23T17:46:58.167Z,54.53
2019-03-23T17:49:27.047Z,52.80
2019-03-23T17:51:56.265Z,58.48
2019-03-23T17:54:25.344Z,54.05
2019-03-23T17:57:00.134Z,57.20
2019-03-23T17:59:27.818Z,58.03
2019-03-23T18:01:55.928Z,56.03
2019-03-23T18:04:24.072Z,56.57
2019-03-23T18:06:52.250Z,49.90
2019-03-23T18:09:20.497Z,54.93
2019-03-23T18:11:49.206Z,52.80
2019-03-23T18:14:28.421Z,57.17
2019-03-23T18:16:56.190Z,54.27
2019-03-23T18:19:23.907Z,55.90
2019-03-23T18:21:51.662Z,54.33
2019-03-23T18:24:19.457Z,57.87
2019-03-23T18:26:47.367Z,54.73
2019-03-23T18:29:16.197Z,57.13
2019-03-23T18:31:43.966Z,62.20
2019-03-23T18:34:11.687Z,53.43
2019-03-23T18:36:39.898Z,48.50
2019-03-23T18:39:07.619Z,50.38
2019-03-23T18:41:35.338Z,48.00
2019-03-23T18:44:03.682Z,43.83
2019-03-23T18:46:32.815Z,39.40
2019-03-23T18:49:02.516Z,37.63
2019-03-23T18:51:30.269Z,37.83
2019-03-23T18:53:59.709Z,30.90
2019-03-23T18:56:27.426Z,33.67
2019-03-23T18:59:06.691Z,35.15
2019-03-23T19:01:42.920Z,28.77
2019-03-23T19:04:16.192Z,26.05
2019-03-23T19:06:55.827Z,27.42
2019-03-23T19:09:28.310Z,27.02
2019-03-23T19:12:01.383Z,26.30
2019-03-23T19:14:29.582Z,22.40
2019-03-23T19:17:03.053Z,27.27
2019-03-23T19:19:36.922Z,22.07
2019-03-23T19:22:04.923Z,23.62
2019-03-23T19:24:54.651Z,24.57
2019-03-23T19:27:43.233Z,20.05
2019-03-23T19:40:16.724Z,21.65
2019-03-23T19:42:44.209Z,24.07
2019-03-23T19:45:11.867Z,25.52
2019-03-23T19:47:39.500Z,25.40
2019-03-23T19:50:07.451Z,25.15
2019-03-23T19:52:35.143Z,23.20
2019-03-23T19:55:02.815Z,27.22
2019-03-23T19:57:30.273Z,24.45
2019-03-23T19:59:57.735Z,29.48
2019-03-23T20:02:25.695Z,28.15
2019-03-23T20:04:53.254Z,28.67
2019-03-23T20:07:20.955Z,32.17
2019-03-23T20:09:48.447Z,26.67
2019-03-23T20:12:16.130Z,29.57
2019-03-23T20:14:43.953Z,31.20
2019-03-23T20:17:11.969Z,32.90
2019-03-23T20:19:39.907Z,31.07
2019-03-23T20:22:07.669Z,31.40
2019-03-23T20:24:35.355Z,28.20
2019-03-23T20:27:03.150Z,28.07
2019-03-23T20:29:30.907Z,27.93
2019-03-23T20:31:58.589Z,27.65
2019-03-23T20:34:26.192Z,28.27
2019-03-23T20:36:53.908Z,29.77
2019-03-23T20:39:21.851Z,29.48
2019-03-23T20:41:49.377Z,25.10
2019-03-23T20:44:16.976Z,28.00
2019-03-23T20:46:44.699Z,28.85
2019-03-23T20:49:12.852Z,27.52
2019-03-23T20:51:40.644Z,28.20
2019-03-23T20:54:08.225Z,28.75
2019-03-23T20:56:35.919Z,26.97
2019-03-23T20:59:05.657Z,25.80
2019-03-23T21:01:36.487Z,24.07
2019-03-23T21:04:04.206Z,25.45
2019-03-23T21:06:31.802Z,23.52
2019-03-23T21:08:59.867Z,19.60
2019-03-23T21:11:28.592Z,22.40
2019-03-23T21:13:57.323Z,17.92
2019-03-23T21:16:25.935Z,18.05
2019-03-23T21:18:54.605Z,16.00
2019-03-23T21:21:23.253Z,14.95
2019-03-23T21:23:52.289Z,15.03
2019-03-23T21:26:24.638Z,12.53
2019-03-23T21:28:52.850Z,13.03
2019-03-23T21:31:20.889Z,14.53
2019-03-23T21:33:48.906Z,12.20
2019-03-23T21:36:19.423Z,10.40
2019-03-23T21:38:47.439Z,13.43
2019-03-23T21:41:15.365Z,13.15
2019-03-23T21:43:43.950Z,13.20
2019-03-23T21:46:15.615Z,9.75
2019-03-23T21:48:43.677Z,13.03
2019-03-23T21:51:11.711Z,14.35
2019-03-23T21:53:40.715Z,9.90
2019-03-23T21:56:09.457Z,9.30
2019-03-23T21:58:40.254Z,11.22
2019-03-23T22:01:09.301Z,8.38
2019-03-23T22:03:38.479Z,11.70
2019-03-23T22:06:07.592Z,9.38
2019-03-23T22:08:36.321Z,11.68
2019-03-23T22:11:04.944Z,10.10
2019-03-23T22:13:33.917Z,7.75
2019-03-23T22:16:05.022Z,7.55
2019-03-23T22:18:33.210Z,10.75
2019-03-23T22:21:01.980Z,9.60
2019-03-23T22:23:30.808Z,9.65
2019-03-23T22:25:59.803Z,10.28
2019-03-23T22:28:28.868Z,9.38
2019-03-23T22:30:58.400Z,11.30
2019-03-23T22:33:47.143Z,12.20
2019-03-23T22:36:15.225Z,13.08
2019-03-23T22:38:43.403Z,10.75
2019-03-23T22:41:11.515Z,10.15
2019-03-23T22:43:40.134Z,12.30
2019-03-23T22:46:11.334Z,9.78
2019-03-23T22:48:39.537Z,16.48
2019-03-23T22:51:07.571Z,8.25
2019-03-23T22:53:35.595Z,10.82
2019-03-23T22:56:03.349Z,9.28
2019-03-23T22:58:31.686Z,9.30
2019-03-23T23:00:59.621Z,9.60
2019-03-23T23:03:27.592Z,12.63
2019-03-23T23:05:56.479Z,14.55
2019-03-23T23:08:24.562Z,14.30
2019-03-23T23:10:52.651Z,13.80
2019-03-23T23:13:20.550Z,13.10
2019-03-23T23:15:48.391Z,10.32
2019-03-23T23:18:16.883Z,16.37
2019-03-23T23:20:45.006Z,13.43
2019-03-23T23:23:13.314Z,15.40
2019-03-23T23:25:41.174Z,10.32
2019-03-23T23:28:09.901Z,9.20
2019-03-23T23:30:38.767Z,12.78
2019-03-23T23:33:06.346Z,10.45
2019-03-23T23:35:35.667Z,13.05
2019-03-23T23:38:05.141Z,10.50
2019-03-23T23:40:33.659Z,12.95
2019-03-23T23:43:01.683Z,11.78
2019-03-23T23:45:30.854Z,10.95
2019-03-23T23:47:59.421Z,12.65
2019-03-23T23:50:29.661Z,10.10
2019-03-23T23:52:57.951Z,17.80
2019-03-23T23:55:26.647Z,13.75
2019-03-23T23:57:55.342Z,13.53
